Pagrindinis puslapis
METAR-TAF:

METAR-TAF

Oro uostai :

Jim Hogg County Airport

Hebbronville, Teksasas, Jungtinės Amerikos Valstijos

platuma: 27-20N, ilguma: 098-44W, Aukštis: 202 m

Dabartinis oras

Ataskaita buvo paskelbta 26 minutes, ne 03:15 UTC
Vėjas 8 kt iš Pietryčių
Temperatūra 21°C
Drėgmė 60%
Slėgis 1023 hPa
Matomumas: 16.1 km
Apsiniaukę ne aukštis 4800 ft

METAR: KHBV 140315Z AUTO 13008KT 10SM OVC048 21/13 A3020 RMK AO2 T02100133

Laikas: 22:41 (03:41 UTC)


TAF: trūkstamas

Orai ataskaitas ir orų prognozės (METAR, TAF).

turimą stotys yra geltonos ir raudonos taškus žemėlapyje.

Perkelti pele per norėdami pamatyti stoties vardą.

Tada spustelėkite, norėdami matyti oro stebėjimo ir prognozės.

Norėdami pakeisti žemėlapį: spustelėkite ant žalios mygtukų su juodo kryžiaus žemyn,; žalią mygtuką su brūkšneliu, jei norite nutolinti; arba žalių rodyklių gretimoms žemėlapius.


METAR-TAF: